createdAt,value
2022-10-23T00:00:45.952Z,12.61
2022-10-23T00:01:48.229Z,12.68
2022-10-23T00:02:54.130Z,12.59
2022-10-23T00:04:08.016Z,12.61
2022-10-23T00:05:10.389Z,12.69
2022-10-23T00:06:13.834Z,12.71
2022-10-23T00:07:16.008Z,12.76
2022-10-23T00:08:18.328Z,12.55
2022-10-23T00:09:23.105Z,12.50
2022-10-23T00:10:26.627Z,12.52
2022-10-23T00:11:30.377Z,12.32
2022-10-23T00:12:32.649Z,12.27
2022-10-23T00:13:34.892Z,12.38
2022-10-23T00:14:37.200Z,12.48
2022-10-23T00:15:39.492Z,12.54
2022-10-23T00:16:41.699Z,12.61
2022-10-23T00:17:44.141Z,12.61
2022-10-23T00:18:46.544Z,12.68
2022-10-23T00:19:48.692Z,12.70
2022-10-23T00:20:50.848Z,12.75
2022-10-23T00:21:53.163Z,12.77
2022-10-23T00:22:55.354Z,12.72
2022-10-23T00:23:57.651Z,12.68
2022-10-23T00:25:00.116Z,12.74
2022-10-23T00:26:04.203Z,12.74
2022-10-23T00:27:06.370Z,12.70
2022-10-23T00:28:08.698Z,12.70
2022-10-23T00:29:11.755Z,12.74
2022-10-23T00:30:14.256Z,12.58
2022-10-23T00:31:16.993Z,12.53
2022-10-23T00:32:19.267Z,12.56
2022-10-23T00:33:21.467Z,12.59
2022-10-23T00:34:23.676Z,12.31
2022-10-23T00:35:25.862Z,12.43
2022-10-23T00:36:28.394Z,12.21
2022-10-23T00:37:30.749Z,12.17
2022-10-23T00:38:33.030Z,12.04
2022-10-23T00:39:35.349Z,12.17
2022-10-23T00:40:38.929Z,12.00
2022-10-23T00:41:41.257Z,11.69
2022-10-23T00:42:43.528Z,11.63
2022-10-23T00:44:06.034Z,11.50
2022-10-23T00:45:19.494Z,11.39
2022-10-23T00:46:21.716Z,11.34
2022-10-23T00:47:24.339Z,11.45
2022-10-23T00:48:28.310Z,11.51
2022-10-23T00:49:32.507Z,11.36
2022-10-23T00:50:36.595Z,11.40
2022-10-23T00:51:43.048Z,11.45
2022-10-23T00:52:49.930Z,11.44
2022-10-23T00:54:06.710Z,11.52
2022-10-23T00:55:22.433Z,11.64
2022-10-23T00:56:26.206Z,11.71
2022-10-23T00:58:35.588Z,11.76
2022-10-23T00:59:37.980Z,11.81
2022-10-23T01:00:47.630Z,11.83
2022-10-23T01:01:49.917Z,11.70
2022-10-23T01:02:54.527Z,11.49
2022-10-23T01:03:56.840Z,11.48
2022-10-23T01:04:59.098Z,11.54
2022-10-23T01:06:24.278Z,11.62
2022-10-23T01:07:36.579Z,11.63
2022-10-23T01:08:45.895Z,11.69
2022-10-23T01:10:00.714Z,11.67
2022-10-23T01:11:14.859Z,11.51
2022-10-23T01:12:19.948Z,11.54
2022-10-23T01:13:41.128Z,11.55
2022-10-23T01:15:05.535Z,11.52
2022-10-23T01:16:18.643Z,11.36
2022-10-23T01:17:39.690Z,11.24
2022-10-23T01:18:59.467Z,11.38
2022-10-23T01:20:26.615Z,11.42
2022-10-23T01:21:38.026Z,11.51
2022-10-23T01:23:07.513Z,11.63
2022-10-23T01:24:37.119Z,11.66
2022-10-23T01:26:21.011Z,11.69
2022-10-23T01:27:25.481Z,11.54
2022-10-23T01:29:03.551Z,11.59
2022-10-23T01:30:15.872Z,11.65
2022-10-23T01:31:42.197Z,11.75
2022-10-23T01:33:07.964Z,11.76
2022-10-23T01:34:26.028Z,11.86
2022-10-23T01:35:51.765Z,11.39
2022-10-23T01:36:56.915Z,11.51
2022-10-23T01:38:04.987Z,11.48
2022-10-23T01:39:12.110Z,11.56
2022-10-23T01:40:32.647Z,11.63
2022-10-23T01:41:53.182Z,11.64
2022-10-23T01:43:10.631Z,11.49
2022-10-23T01:44:35.059Z,11.18
2022-10-23T01:45:40.941Z,11.29
2022-10-23T01:46:47.221Z,11.18
2022-10-23T01:47:50.853Z,11.10
2022-10-23T01:48:55.098Z,11.19
2022-10-23T01:49:59.889Z,10.94
2022-10-23T01:51:06.310Z,10.94
2022-10-23T01:52:12.943Z,10.89
2022-10-23T01:53:19.538Z,10.96
2022-10-23T01:54:28.496Z,11.05
2022-10-23T01:55:32.523Z,11.13
2022-10-23T01:56:41.292Z,10.90
2022-10-23T01:57:45.877Z,11.05
2022-10-23T01:58:52.514Z,11.04
2022-10-23T02:00:01.347Z,11.12
2022-10-23T02:01:06.938Z,11.22
2022-10-23T02:02:23.706Z,11.11
2022-10-23T02:03:31.228Z,11.20
2022-10-23T02:04:40.586Z,10.98
2022-10-23T02:05:43.930Z,11.14
2022-10-23T02:06:46.260Z,11.22
2022-10-23T02:07:49.319Z,11.29
2022-10-23T02:08:51.503Z,11.02
2022-10-23T02:09:54.128Z,11.19
2022-10-23T02:11:08.130Z,11.10
2022-10-23T02:12:16.492Z,11.17
2022-10-23T02:13:33.760Z,11.37
2022-10-23T02:15:02.831Z,11.54
2022-10-23T02:16:21.650Z,11.58
2022-10-23T02:17:47.918Z,11.71
2022-10-23T02:19:15.743Z,11.84
2022-10-23T02:20:36.788Z,11.84
2022-10-23T02:21:56.431Z,11.87
2022-10-23T02:23:22.576Z,11.86
2022-10-23T02:24:46.207Z,11.79
2022-10-23T02:25:55.426Z,11.47
2022-10-23T02:27:02.293Z,11.62
2022-10-23T02:28:09.479Z,11.67
2022-10-23T02:29:43.173Z,11.54
2022-10-23T02:30:49.138Z,11.64
2022-10-23T02:31:51.401Z,11.31
2022-10-23T02:32:56.517Z,11.41
2022-10-23T02:33:58.791Z,11.47
2022-10-23T02:35:01.429Z,11.08
2022-10-23T02:36:04.267Z,11.28
2022-10-23T02:37:06.715Z,11.42
2022-10-23T02:38:34.869Z,11.57
2022-10-23T02:39:37.145Z,11.26
2022-10-23T02:40:44.279Z,11.10
2022-10-23T02:41:56.018Z,11.01
2022-10-23T02:43:16.116Z,11.12
2022-10-23T02:44:28.914Z,11.01
2022-10-23T02:45:45.043Z,11.09
2022-10-23T02:47:11.619Z,11.16
2022-10-23T02:48:30.459Z,11.00
2022-10-23T02:49:54.405Z,11.12
2022-10-23T02:51:12.785Z,11.16
2022-10-23T02:52:37.860Z,11.04
2022-10-23T02:55:09.645Z,11.19
2022-10-23T02:56:36.612Z,11.30
2022-10-23T02:57:48.444Z,11.39
2022-10-23T02:59:02.323Z,11.43
2022-10-23T03:00:11.452Z,11.28
2022-10-23T03:01:29.063Z,11.19
2022-10-23T03:02:40.944Z,11.17
2022-10-23T03:03:53.774Z,11.04
2022-10-23T03:04:56.618Z,11.03
2022-10-23T03:05:59.027Z,11.18
2022-10-23T03:07:01.351Z,11.27
2022-10-23T03:08:06.186Z,11.29
2022-10-23T03:09:09.510Z,11.16
2022-10-23T03:10:11.704Z,11.04
2022-10-23T03:11:13.903Z,10.92
2022-10-23T03:12:16.108Z,10.92
2022-10-23T03:13:18.306Z,10.91
2022-10-23T03:14:20.529Z,11.04
2022-10-23T03:15:22.791Z,11.13
2022-10-23T03:16:26.705Z,11.14
2022-10-23T03:17:30.222Z,11.20
2022-10-23T03:18:34.737Z,11.05
2022-10-23T03:19:38.272Z,11.09
2022-10-23T03:20:40.640Z,11.22
2022-10-23T03:21:42.865Z,11.27
2022-10-23T03:22:45.776Z,11.16
2022-10-23T03:23:48.651Z,11.18
2022-10-23T03:24:54.585Z,11.24
2022-10-23T03:25:56.858Z,11.30
2022-10-23T03:27:25.031Z,11.43
2022-10-23T03:28:29.971Z,11.48
2022-10-23T03:29:34.193Z,11.51
2022-10-23T03:30:36.408Z,11.59
2022-10-23T03:31:38.601Z,11.57
2022-10-23T03:32:41.404Z,11.38
2022-10-23T03:33:43.900Z,11.34
2022-10-23T03:34:47.654Z,11.34
2022-10-23T03:35:49.860Z,11.47
2022-10-23T03:36:52.525Z,11.51
2022-10-23T03:37:56.010Z,11.59
2022-10-23T03:39:00.913Z,11.63
2022-10-23T03:40:04.655Z,11.70
2022-10-23T03:41:10.285Z,11.72
2022-10-23T03:42:12.527Z,11.77
2022-10-23T03:43:14.918Z,11.85
2022-10-23T03:44:17.438Z,11.79
2022-10-23T03:45:20.681Z,11.81
2022-10-23T03:46:24.282Z,11.81
2022-10-23T03:47:30.407Z,11.80
2022-10-23T03:48:33.178Z,11.73
2022-10-23T03:49:35.712Z,11.80
2022-10-23T03:50:41.590Z,11.83
2022-10-23T03:51:44.848Z,11.89
2022-10-23T03:52:47.167Z,11.77
2022-10-23T03:53:49.677Z,11.61
2022-10-23T03:54:51.862Z,11.49
2022-10-23T03:55:54.090Z,11.42
2022-10-23T03:56:57.784Z,11.43
2022-10-23T03:58:01.336Z,11.26
2022-10-23T03:59:03.540Z,11.35
2022-10-23T04:00:06.915Z,11.41
2022-10-23T04:01:18.580Z,11.53
2022-10-23T04:02:21.747Z,11.64
2022-10-23T04:03:24.088Z,11.66
2022-10-23T04:04:27.158Z,11.70
2022-10-23T04:05:29.339Z,11.74
2022-10-23T04:06:34.418Z,11.79
2022-10-23T04:07:37.420Z,11.80
2022-10-23T04:08:39.685Z,11.84
2022-10-23T04:09:48.557Z,11.86
2022-10-23T04:10:52.166Z,11.87
2022-10-23T04:11:59.872Z,11.91
2022-10-23T04:13:03.663Z,11.96
2022-10-23T04:14:13.185Z,11.95
2022-10-23T04:15:15.404Z,11.95
2022-10-23T04:16:20.862Z,12.00
2022-10-23T04:17:23.136Z,12.01
2022-10-23T04:18:25.394Z,12.02
2022-10-23T04:19:27.660Z,12.10
2022-10-23T04:20:32.535Z,12.11
2022-10-23T04:21:37.790Z,12.15
2022-10-23T04:22:40.227Z,12.20
2022-10-23T04:23:42.924Z,12.19
2022-10-23T04:24:50.823Z,12.17
2022-10-23T04:25:56.923Z,12.16
2022-10-23T04:27:00.346Z,12.08
2022-10-23T04:28:04.918Z,12.11
2022-10-23T04:29:12.013Z,12.09
2022-10-23T04:30:14.298Z,12.06
2022-10-23T04:31:16.594Z,11.99
2022-10-23T04:32:19.151Z,11.73
2022-10-23T04:33:21.435Z,11.78
2022-10-23T04:34:25.951Z,11.74
2022-10-23T04:35:29.489Z,11.81
2022-10-23T04:36:31.771Z,11.83
2022-10-23T04:37:43.200Z,12.10
2022-10-23T04:38:45.749Z,12.31
2022-10-23T04:39:48.036Z,12.38
2022-10-23T04:40:50.607Z,12.53
2022-10-23T04:41:56.627Z,12.62
2022-10-23T04:43:00.869Z,12.64
2022-10-23T04:44:07.601Z,12.49
2022-10-23T04:45:13.463Z,12.50
2022-10-23T04:46:17.673Z,12.42
2022-10-23T04:47:22.697Z,12.38
2022-10-23T04:48:32.522Z,12.18
2022-10-23T04:49:57.131Z,12.17
2022-10-23T04:51:18.314Z,12.20
2022-10-23T04:52:38.074Z,12.04
2022-10-23T04:54:00.418Z,12.06
2022-10-23T04:55:20.812Z,11.98
2022-10-23T04:56:40.872Z,12.14
2022-10-23T04:57:46.989Z,12.33
2022-10-23T04:58:52.686Z,12.45
2022-10-23T04:59:55.052Z,12.54
2022-10-23T05:00:58.641Z,12.61
2022-10-23T05:02:02.023Z,12.70
2022-10-23T05:03:04.657Z,12.79
2022-10-23T05:04:14.319Z,12.88
2022-10-23T05:05:40.153Z,12.88
2022-10-23T05:06:58.000Z,12.93
2022-10-23T05:08:32.798Z,12.70
2022-10-23T05:09:54.368Z,12.91
2022-10-23T05:11:22.963Z,12.93
2022-10-23T05:12:27.530Z,13.02
2022-10-23T05:13:30.043Z,13.04
2022-10-23T05:14:32.338Z,13.13
2022-10-23T05:15:34.733Z,13.05
2022-10-23T05:16:42.800Z,13.04
2022-10-23T05:17:49.634Z,13.00
2022-10-23T05:18:51.809Z,12.78
2022-10-23T05:19:57.012Z,12.74
2022-10-23T05:21:15.218Z,12.63
2022-10-23T05:22:19.278Z,12.72
2022-10-23T05:23:26.440Z,12.84
2022-10-23T05:24:35.856Z,12.74
2022-10-23T05:25:39.605Z,12.85
2022-10-23T05:26:52.773Z,12.94
2022-10-23T05:27:55.825Z,13.02
2022-10-23T05:28:58.051Z,13.08
2022-10-23T05:30:00.368Z,13.06
2022-10-23T05:31:06.496Z,13.08
2022-10-23T05:32:14.415Z,13.10
2022-10-23T05:33:17.748Z,13.07
2022-10-23T05:34:25.424Z,13.10
2022-10-23T05:35:29.537Z,13.03
2022-10-23T05:36:31.972Z,13.03
2022-10-23T05:37:34.305Z,12.88
2022-10-23T05:39:02.560Z,12.97
2022-10-23T05:40:05.239Z,13.04
2022-10-23T05:41:10.310Z,12.99
2022-10-23T05:42:13.023Z,13.03
2022-10-23T05:43:16.535Z,13.12
2022-10-23T05:44:28.358Z,13.17
2022-10-23T05:45:54.211Z,13.09
2022-10-23T05:47:16.343Z,12.95
2022-10-23T05:48:37.432Z,12.88
2022-10-23T05:50:02.466Z,12.96
2022-10-23T05:51:41.107Z,12.90
2022-10-23T05:52:57.624Z,12.96
2022-10-23T05:54:08.154Z,13.03
2022-10-23T05:55:30.542Z,13.14
2022-10-23T05:56:53.079Z,13.14
2022-10-23T05:57:57.588Z,13.18
2022-10-23T05:59:22.835Z,12.90
2022-10-23T06:00:29.238Z,12.81
2022-10-23T06:01:49.740Z,12.58
2022-10-23T06:03:01.118Z,12.52
2022-10-23T06:04:13.882Z,12.57
2022-10-23T06:05:36.086Z,12.70
2022-10-23T06:07:04.611Z,12.83
2022-10-23T06:08:07.615Z,12.97
2022-10-23T06:09:09.936Z,12.77
2022-10-23T06:10:15.041Z,12.55
2022-10-23T06:11:20.952Z,12.39
2022-10-23T06:12:33.016Z,12.42
2022-10-23T06:13:35.958Z,12.48
2022-10-23T06:14:38.459Z,12.45
2022-10-23T06:15:40.828Z,12.56
2022-10-23T06:16:52.438Z,12.58
2022-10-23T06:17:55.707Z,12.58
2022-10-23T06:18:58.649Z,12.50
2022-10-23T06:20:02.445Z,12.27
2022-10-23T06:21:09.531Z,12.18
2022-10-23T06:22:12.434Z,12.18
2022-10-23T06:23:25.388Z,12.28
2022-10-23T06:25:00.299Z,12.29
2022-10-23T06:26:04.677Z,12.35
2022-10-23T06:27:18.559Z,12.44
2022-10-23T06:28:22.336Z,12.54
2022-10-23T06:29:24.844Z,12.68
2022-10-23T06:30:27.119Z,12.82
2022-10-23T06:31:29.615Z,12.95
2022-10-23T06:32:33.198Z,13.01
2022-10-23T06:33:46.457Z,13.12
2022-10-23T06:34:48.831Z,13.17
2022-10-23T06:35:51.138Z,13.30
2022-10-23T06:36:54.015Z,13.35
2022-10-23T06:38:18.217Z,13.38
2022-10-23T06:39:29.894Z,13.28
2022-10-23T06:40:56.650Z,13.05
2022-10-23T06:42:09.118Z,12.98
2022-10-23T06:43:40.762Z,12.77
2022-10-23T06:45:09.472Z,12.83
2022-10-23T06:46:35.025Z,12.94
2022-10-23T06:47:55.754Z,13.14
2022-10-23T06:49:27.286Z,13.36
2022-10-23T06:50:33.472Z,13.25
2022-10-23T06:51:41.320Z,13.35
2022-10-23T06:52:48.033Z,13.34
2022-10-23T06:53:52.940Z,13.23
2022-10-23T06:55:15.134Z,12.91
2022-10-23T06:56:17.636Z,12.87
2022-10-23T06:57:20.850Z,12.90
2022-10-23T06:58:25.862Z,12.90
2022-10-23T06:59:37.571Z,13.08
2022-10-23T07:00:41.471Z,13.25
2022-10-23T07:01:44.069Z,13.43
2022-10-23T07:02:46.536Z,13.44
2022-10-23T07:03:49.408Z,13.33
2022-10-23T07:04:56.071Z,13.26
2022-10-23T07:06:08.681Z,13.29
2022-10-23T07:07:11.423Z,13.26
2022-10-23T07:08:21.612Z,13.39
2022-10-23T07:09:26.966Z,13.60
2022-10-23T07:10:29.214Z,13.79
2022-10-23T07:11:37.204Z,13.83
2022-10-23T07:12:39.468Z,13.60
2022-10-23T07:14:17.015Z,13.60
2022-10-23T07:15:29.243Z,13.60
2022-10-23T07:16:32.898Z,13.74
2022-10-23T07:17:35.089Z,13.93
2022-10-23T07:18:38.540Z,14.17
2022-10-23T07:19:56.190Z,14.42
2022-10-23T07:20:59.107Z,14.55
2022-10-23T07:22:01.542Z,14.72
2022-10-23T07:23:07.094Z,14.86
2022-10-23T07:24:13.740Z,14.87
2022-10-23T07:25:16.170Z,14.72
2022-10-23T07:26:18.872Z,14.73
2022-10-23T07:27:23.513Z,14.80
2022-10-23T07:28:31.314Z,14.83
2022-10-23T07:29:34.302Z,15.02
2022-10-23T07:30:37.873Z,15.20
2022-10-23T07:31:40.609Z,15.34
2022-10-23T07:33:01.105Z,15.59
2022-10-23T07:34:32.163Z,15.79
2022-10-23T07:35:54.763Z,15.56
2022-10-23T07:37:02.719Z,15.32
2022-10-23T07:38:05.612Z,15.32
2022-10-23T07:39:12.343Z,15.20
2022-10-23T07:40:22.002Z,15.31
2022-10-23T07:41:27.097Z,15.36
2022-10-23T07:42:29.350Z,15.48
2022-10-23T07:43:33.929Z,15.54
2022-10-23T07:44:36.291Z,15.48
2022-10-23T07:45:39.093Z,15.23
2022-10-23T07:46:50.238Z,15.42
2022-10-23T07:47:53.270Z,15.47
2022-10-23T07:48:59.042Z,15.61
2022-10-23T07:50:01.274Z,15.57
2022-10-23T07:51:14.979Z,15.56
2022-10-23T07:52:20.732Z,15.69
2022-10-23T07:53:49.087Z,15.96
2022-10-23T07:55:08.921Z,16.21
2022-10-23T07:56:17.051Z,16.24
2022-10-23T07:57:42.106Z,16.15
2022-10-23T07:58:58.870Z,16.37
2022-10-23T08:00:01.145Z,16.58
2022-10-23T08:01:16.457Z,16.74
2022-10-23T08:02:20.639Z,16.89
2022-10-23T08:03:34.134Z,17.28
2022-10-23T08:04:38.019Z,17.50
2022-10-23T08:05:50.060Z,17.55
2022-10-23T08:06:52.684Z,17.43
2022-10-23T08:07:55.579Z,17.21
2022-10-23T08:08:59.939Z,17.23
2022-10-23T08:10:05.674Z,17.76
2022-10-23T08:11:12.403Z,17.77
2022-10-23T08:12:23.947Z,17.60
2022-10-23T08:13:26.092Z,17.75
2022-10-23T08:14:35.127Z,17.66
2022-10-23T08:15:37.387Z,17.87
2022-10-23T08:16:48.994Z,17.87
2022-10-23T08:17:53.683Z,18.23
2022-10-23T08:19:11.783Z,18.62
2022-10-23T08:20:17.427Z,18.48
2022-10-23T08:21:21.110Z,18.30
2022-10-23T08:22:24.798Z,18.28
2022-10-23T08:23:27.784Z,18.22
2022-10-23T08:24:30.156Z,18.19
2022-10-23T08:26:41.216Z,18.15
2022-10-23T08:27:45.706Z,18.02
2022-10-23T08:28:49.486Z,17.97
2022-10-23T08:29:51.705Z,18.24
2022-10-23T08:30:54.417Z,18.28
2022-10-23T08:31:57.379Z,18.04
2022-10-23T08:33:07.572Z,17.97
2022-10-23T08:34:10.366Z,18.02
2022-10-23T08:35:12.920Z,17.99
2022-10-23T08:36:24.611Z,18.04
2022-10-23T08:37:26.786Z,18.31
2022-10-23T08:38:29.205Z,18.40
2022-10-23T08:39:32.036Z,18.42
2022-10-23T08:40:55.429Z,18.34
2022-10-23T08:42:24.269Z,18.58
2022-10-23T08:43:37.523Z,18.67
2022-10-23T08:45:00.531Z,18.94
2022-10-23T08:46:10.848Z,18.86
2022-10-23T08:47:44.790Z,18.88
2022-10-23T08:49:26.399Z,19.01
2022-10-23T08:50:42.487Z,19.10
2022-10-23T08:51:49.093Z,19.04
2022-10-23T08:53:04.870Z,19.03
2022-10-23T08:54:20.786Z,18.77
2022-10-23T08:55:46.076Z,19.00
2022-10-23T08:57:00.186Z,19.15
2022-10-23T08:58:18.386Z,19.31
2022-10-23T08:59:28.935Z,19.44
2022-10-23T09:00:31.204Z,19.37
2022-10-23T09:01:40.788Z,19.23
2022-10-23T09:02:46.547Z,19.40
2022-10-23T09:03:48.767Z,19.50
2022-10-23T09:04:53.619Z,19.71
2022-10-23T09:06:19.474Z,19.57
2022-10-23T09:07:34.556Z,19.82
2022-10-23T09:08:44.520Z,20.22
2022-10-23T09:10:05.128Z,20.36
2022-10-23T09:11:43.988Z,20.22
2022-10-23T09:12:47.228Z,20.21
2022-10-23T09:14:12.331Z,20.13
2022-10-23T09:15:28.290Z,19.95
2022-10-23T09:16:47.600Z,20.07
2022-10-23T09:18:10.971Z,20.31
2022-10-23T09:19:19.372Z,20.07
2022-10-23T09:20:24.562Z,19.92
2022-10-23T09:21:29.366Z,20.00
2022-10-23T09:22:31.644Z,20.02
2022-10-23T09:23:33.774Z,20.32
2022-10-23T09:24:36.431Z,19.88
2022-10-23T09:25:40.940Z,19.89
2022-10-23T09:26:49.988Z,20.42
2022-10-23T09:27:56.740Z,20.32
2022-10-23T09:29:20.880Z,19.97
2022-10-23T09:30:27.397Z,19.97
2022-10-23T09:31:29.521Z,19.66
2022-10-23T09:32:38.283Z,19.39
2022-10-23T09:33:40.907Z,19.67
2022-10-23T09:34:54.763Z,19.91
2022-10-23T09:36:00.558Z,20.01
2022-10-23T09:37:17.345Z,20.05
2022-10-23T09:38:39.771Z,19.89
2022-10-23T09:39:42.060Z,19.85
2022-10-23T09:40:44.501Z,19.93
2022-10-23T09:41:46.854Z,19.95
2022-10-23T09:43:04.307Z,19.73
2022-10-23T09:44:26.827Z,19.53
2022-10-23T09:45:34.167Z,19.31
2022-10-23T09:47:01.246Z,19.68
2022-10-23T09:48:23.566Z,19.82
2022-10-23T09:49:30.826Z,19.97
2022-10-23T09:50:33.145Z,19.90
2022-10-23T09:51:35.391Z,20.02
2022-10-23T09:52:38.864Z,20.22
2022-10-23T09:53:52.156Z,20.21
2022-10-23T09:54:57.439Z,20.10
2022-10-23T09:56:25.973Z,20.00
2022-10-23T09:57:42.576Z,19.93
2022-10-23T09:58:55.605Z,20.02
2022-10-23T10:00:19.466Z,19.99
2022-10-23T10:01:27.069Z,19.95
2022-10-23T10:02:36.474Z,20.17
2022-10-23T10:04:03.215Z,20.03
2022-10-23T10:05:26.562Z,19.98
2022-10-23T10:06:33.912Z,20.23
2022-10-23T10:07:36.860Z,20.53
2022-10-23T10:08:51.435Z,20.70
2022-10-23T10:09:55.490Z,20.28
2022-10-23T10:11:10.227Z,20.00
2022-10-23T10:12:20.250Z,20.05
2022-10-23T10:13:36.432Z,20.03
2022-10-23T10:14:49.790Z,20.19
2022-10-23T10:16:01.242Z,20.21
2022-10-23T10:17:34.036Z,20.29
2022-10-23T10:18:43.235Z,20.73
2022-10-23T10:20:07.370Z,20.71
2022-10-23T10:21:28.337Z,20.86
2022-10-23T10:22:40.516Z,20.83
2022-10-23T10:24:12.459Z,20.62
2022-10-23T10:25:21.250Z,20.27
2022-10-23T10:26:51.049Z,20.36
2022-10-23T10:28:17.240Z,20.28
2022-10-23T10:29:30.776Z,20.30
2022-10-23T10:30:51.796Z,20.44
2022-10-23T10:32:05.933Z,20.80
2022-10-23T10:33:27.286Z,20.72
2022-10-23T10:34:40.208Z,20.86
2022-10-23T10:36:10.088Z,20.85
2022-10-23T10:37:43.879Z,20.76
2022-10-23T10:38:56.682Z,20.86
2022-10-23T10:40:13.276Z,20.87
2022-10-23T10:41:32.464Z,20.57
2022-10-23T10:43:07.817Z,20.90
2022-10-23T10:44:59.979Z,21.01
2022-10-23T10:46:35.951Z,20.94
2022-10-23T10:48:01.459Z,20.82
2022-10-23T10:49:15.993Z,20.61
2022-10-23T10:50:47.727Z,20.61
2022-10-23T10:52:27.631Z,20.95
2022-10-23T10:53:50.783Z,20.80
2022-10-23T10:55:30.309Z,20.56
2022-10-23T10:56:37.139Z,20.47
2022-10-23T10:57:43.568Z,20.34
2022-10-23T10:58:53.852Z,20.51
2022-10-23T11:00:01.497Z,20.40
2022-10-23T11:01:13.689Z,20.30
2022-10-23T11:02:27.607Z,20.36
2022-10-23T11:03:46.656Z,20.66
2022-10-23T11:04:54.704Z,20.78
2022-10-23T11:07:14.804Z,20.60
2022-10-23T11:08:22.186Z,20.63
2022-10-23T11:09:29.283Z,20.76
2022-10-23T11:10:34.659Z,20.72
2022-10-23T11:11:40.656Z,20.52
2022-10-23T11:12:45.545Z,20.62
2022-10-23T11:13:51.295Z,20.76
2022-10-23T11:14:53.761Z,20.70
2022-10-23T11:16:05.633Z,20.63
2022-10-23T11:17:26.213Z,20.73
2022-10-23T11:18:31.741Z,20.67
2022-10-23T11:19:52.165Z,20.47
2022-10-23T11:21:17.122Z,20.42
2022-10-23T11:22:43.442Z,20.37
2022-10-23T11:24:00.277Z,20.51
2022-10-23T11:25:44.201Z,20.33
2022-10-23T11:27:27.493Z,20.40
2022-10-23T11:28:45.955Z,20.51
2022-10-23T11:30:21.203Z,20.36
2022-10-23T11:31:41.342Z,20.42
2022-10-23T11:32:55.517Z,20.55
2022-10-23T11:34:35.585Z,20.84
2022-10-23T11:35:57.205Z,20.73
2022-10-23T11:37:04.746Z,20.77
2022-10-23T11:38:12.653Z,20.82
2022-10-23T11:39:17.448Z,20.93
2022-10-23T11:40:24.116Z,20.90
2022-10-23T11:41:33.991Z,20.86
2022-10-23T11:42:38.824Z,21.14
2022-10-23T11:44:03.325Z,21.28
2022-10-23T11:45:27.160Z,21.13
2022-10-23T11:46:37.107Z,21.35
2022-10-23T11:47:40.771Z,21.63
2022-10-23T11:48:44.600Z,21.65
2022-10-23T11:49:46.898Z,21.60
2022-10-23T11:50:50.024Z,21.70
2022-10-23T11:52:05.653Z,21.78
2022-10-23T11:53:43.345Z,21.57
2022-10-23T11:54:45.536Z,21.64
2022-10-23T11:56:12.726Z,21.66
2022-10-23T11:57:17.291Z,21.49
2022-10-23T11:58:24.003Z,21.37
2022-10-23T11:59:31.601Z,21.45
2022-10-23T12:00:39.572Z,21.58
2022-10-23T12:01:45.335Z,21.58
2022-10-23T12:02:58.948Z,21.61
2022-10-23T12:04:21.156Z,21.61
2022-10-23T12:05:41.371Z,21.47
2022-10-23T12:06:57.449Z,21.42
2022-10-23T12:08:02.269Z,21.59
2022-10-23T12:09:22.928Z,21.48
2022-10-23T12:10:30.766Z,21.53
2022-10-23T12:11:46.721Z,21.45
2022-10-23T12:12:59.747Z,21.68
2022-10-23T12:14:01.965Z,21.79
2022-10-23T12:15:16.254Z,21.88
2022-10-23T12:16:18.386Z,22.00
2022-10-23T12:17:23.267Z,21.86
2022-10-23T12:18:27.377Z,21.91
2022-10-23T12:19:42.994Z,21.77
2022-10-23T12:20:56.410Z,21.79
2022-10-23T12:22:01.384Z,21.69
2022-10-23T12:23:23.883Z,21.98
2022-10-23T12:24:34.678Z,21.89
2022-10-23T12:26:14.375Z,21.98
2022-10-23T12:27:20.971Z,22.25
2022-10-23T12:28:39.340Z,22.28
2022-10-23T12:30:03.194Z,22.26
2022-10-23T12:31:38.650Z,22.23
2022-10-23T12:33:23.566Z,22.21
2022-10-23T12:34:56.994Z,22.16
2022-10-23T12:36:24.681Z,22.04
2022-10-23T12:37:59.851Z,22.05
2022-10-23T12:39:02.106Z,22.16
2022-10-23T12:40:09.201Z,22.37
2022-10-23T12:41:15.928Z,22.39
2022-10-23T12:42:29.116Z,22.33
2022-10-23T12:43:34.976Z,22.28
2022-10-23T12:44:42.956Z,22.28
2022-10-23T12:45:45.351Z,22.24
2022-10-23T12:46:51.167Z,22.29
2022-10-23T12:47:56.504Z,22.26
2022-10-23T12:49:03.987Z,22.08
2022-10-23T12:50:30.257Z,21.83
2022-10-23T12:51:34.389Z,21.84
2022-10-23T12:52:39.549Z,21.86
2022-10-23T12:53:41.825Z,21.93
2022-10-23T12:54:44.533Z,22.08
2022-10-23T12:56:04.990Z,22.12
2022-10-23T12:57:22.373Z,22.46
2022-10-23T12:58:31.757Z,22.59
2022-10-23T12:59:39.022Z,22.55
2022-10-23T13:00:51.006Z,22.32
2022-10-23T13:01:55.056Z,22.28
2022-10-23T13:03:03.840Z,22.28
2022-10-23T13:04:22.017Z,22.09
2022-10-23T13:05:25.094Z,22.10
2022-10-23T13:06:32.407Z,22.13
2022-10-23T13:07:40.905Z,22.15
2022-10-23T13:08:47.510Z,21.85
2022-10-23T13:10:18.596Z,21.99
2022-10-23T13:11:29.839Z,22.09
2022-10-23T13:12:38.531Z,22.10
2022-10-23T13:13:41.926Z,22.30
2022-10-23T13:15:03.492Z,22.40
2022-10-23T13:16:17.739Z,22.22
2022-10-23T13:17:19.886Z,22.49
2022-10-23T13:18:22.295Z,22.50
2022-10-23T13:19:26.053Z,22.67
2022-10-23T13:20:31.434Z,22.62
2022-10-23T13:21:34.012Z,22.56
2022-10-23T13:22:36.179Z,22.58
2022-10-23T13:23:41.801Z,22.65
2022-10-23T13:24:44.036Z,22.78
2022-10-23T13:25:57.462Z,22.79
2022-10-23T13:27:00.801Z,22.83
2022-10-23T13:28:12.841Z,22.72
2022-10-23T13:29:23.419Z,22.83
2022-10-23T13:30:34.175Z,22.94
2022-10-23T13:31:36.786Z,22.92
2022-10-23T13:32:38.923Z,22.94
2022-10-23T13:33:43.867Z,22.70
2022-10-23T13:35:03.564Z,22.48
2022-10-23T13:36:15.247Z,22.58
2022-10-23T13:37:28.957Z,22.46
2022-10-23T13:38:35.092Z,22.44
2022-10-23T13:39:37.266Z,22.50
2022-10-23T13:40:39.657Z,22.40
2022-10-23T13:41:46.901Z,22.37
2022-10-23T13:42:53.963Z,22.37
2022-10-23T13:43:59.126Z,22.30
2022-10-23T13:45:01.642Z,22.32
2022-10-23T13:46:03.884Z,22.27
2022-10-23T13:47:12.947Z,22.41
2022-10-23T13:48:16.043Z,22.25
2022-10-23T13:49:19.258Z,22.09
2022-10-23T13:50:21.954Z,22.15
2022-10-23T13:51:33.376Z,22.18
2022-10-23T13:52:38.042Z,22.20
2022-10-23T13:53:40.399Z,22.30
2022-10-23T13:54:43.565Z,22.38
2022-10-23T13:55:50.088Z,22.43
2022-10-23T13:56:54.061Z,22.53
2022-10-23T13:57:56.378Z,22.53
2022-10-23T13:58:58.515Z,22.48
2022-10-23T14:00:00.737Z,22.44
2022-10-23T14:01:03.208Z,22.40
2022-10-23T14:02:20.586Z,22.35
2022-10-23T14:03:24.291Z,22.36
2022-10-23T14:04:26.455Z,22.57
2022-10-23T14:05:28.582Z,22.63
2022-10-23T14:06:31.674Z,22.53
2022-10-23T14:07:33.876Z,22.57
2022-10-23T14:08:36.024Z,22.51
2022-10-23T14:09:38.180Z,22.28
2022-10-23T14:10:40.400Z,22.15
2022-10-23T14:11:43.070Z,22.16
2022-10-23T14:12:45.635Z,22.01
2022-10-23T14:13:49.034Z,21.95
2022-10-23T14:14:54.010Z,21.85
2022-10-23T14:15:56.351Z,21.91
2022-10-23T14:16:58.744Z,21.89
2022-10-23T14:18:04.642Z,21.84
2022-10-23T14:19:10.877Z,21.80
2022-10-23T14:20:13.263Z,21.71
2022-10-23T14:21:19.797Z,21.66
2022-10-23T14:22:22.121Z,21.63
2022-10-23T14:23:24.259Z,21.54
2022-10-23T14:24:26.553Z,21.51
2022-10-23T14:25:28.686Z,21.52
2022-10-23T14:26:32.653Z,21.46
2022-10-23T14:27:37.689Z,21.45
2022-10-23T14:28:42.779Z,21.39
2022-10-23T14:29:45.025Z,21.34
2022-10-23T14:30:47.466Z,21.27
2022-10-23T14:31:49.843Z,21.24
2022-10-23T14:32:52.717Z,21.23
2022-10-23T14:34:00.584Z,21.29
2022-10-23T14:35:03.903Z,21.29
2022-10-23T14:36:07.028Z,21.25
2022-10-23T14:37:09.494Z,21.24
2022-10-23T14:38:11.879Z,21.25
2022-10-23T14:39:14.064Z,21.20
2022-10-23T14:40:16.513Z,21.26
2022-10-23T14:41:18.890Z,21.24
2022-10-23T14:42:21.095Z,21.17
2022-10-23T14:43:24.178Z,21.08
2022-10-23T14:44:26.440Z,21.00
2022-10-23T14:45:29.676Z,20.97
2022-10-23T14:46:32.192Z,20.98
2022-10-23T14:47:34.368Z,20.93
2022-10-23T14:48:37.752Z,20.85
2022-10-23T14:49:40.279Z,20.83
2022-10-23T14:50:45.983Z,20.78
2022-10-23T14:51:48.285Z,20.73
2022-10-23T14:52:50.539Z,20.70
2022-10-23T14:54:01.875Z,20.63
2022-10-23T14:55:04.407Z,20.58
2022-10-23T14:56:06.761Z,20.64
2022-10-23T14:57:09.330Z,20.62
2022-10-23T14:58:11.582Z,20.56
2022-10-23T14:59:15.131Z,20.55
2022-10-23T15:00:17.448Z,20.51
2022-10-23T15:01:19.919Z,20.46
2022-10-23T15:02:22.304Z,20.41
2022-10-23T15:03:24.642Z,20.45
2022-10-23T15:04:27.141Z,20.40